sensor_id;sensor_type;location;lat;lon;timestamp;P1;durP1;ratioP1;P2;durP2;ratioP2
16288;SDS011;26089;43.538;5.250;2022-09-01T00:02:22;4.57;;;3.80;;
16288;SDS011;26089;43.538;5.250;2022-09-01T00:04:51;6.17;;;3.70;;
16288;SDS011;26089;43.538;5.250;2022-09-01T00:07:23;4.87;;;3.63;;
16288;SDS011;26089;43.538;5.250;2022-09-01T00:09:54;3.80;;;3.40;;
16288;SDS011;26089;43.538;5.250;2022-09-01T00:12:21;3.50;;;3.20;;
16288;SDS011;26089;43.538;5.250;2022-09-01T00:14:49;3.90;;;3.60;;
16288;SDS011;26089;43.538;5.250;2022-09-01T00:17:17;5.03;;;3.60;;
16288;SDS011;26089;43.538;5.250;2022-09-01T00:19:44;5.63;;;4.10;;
16288;SDS011;26089;43.538;5.250;2022-09-01T00:22:11;4.43;;;3.73;;
16288;SDS011;26089;43.538;5.250;2022-09-01T00:24:39;3.83;;;3.50;;
16288;SDS011;26089;43.538;5.250;2022-09-01T00:27:07;5.47;;;3.83;;
16288;SDS011;26089;43.538;5.250;2022-09-01T00:29:34;4.50;;;3.80;;
16288;SDS011;26089;43.538;5.250;2022-09-01T00:32:01;6.93;;;4.33;;
16288;SDS011;26089;43.538;5.250;2022-09-01T00:34:28;4.33;;;3.67;;
16288;SDS011;26089;43.538;5.250;2022-09-01T00:36:56;5.03;;;3.50;;
16288;SDS011;26089;43.538;5.250;2022-09-01T00:39:23;4.07;;;3.67;;
16288;SDS011;26089;43.538;5.250;2022-09-01T00:41:51;4.40;;;3.90;;
16288;SDS011;26089;43.538;5.250;2022-09-01T00:44:19;7.90;;;3.77;;
16288;SDS011;26089;43.538;5.250;2022-09-01T00:46:48;3.73;;;3.43;;
16288;SDS011;26089;43.538;5.250;2022-09-01T00:49:18;6.13;;;3.87;;
16288;SDS011;26089;43.538;5.250;2022-09-01T00:51:49;4.67;;;3.70;;
16288;SDS011;26089;43.538;5.250;2022-09-01T00:54:26;6.37;;;3.70;;
16288;SDS011;26089;43.538;5.250;2022-09-01T00:56:57;5.23;;;3.70;;
16288;SDS011;26089;43.538;5.250;2022-09-01T00:59:25;3.67;;;3.37;;
16288;SDS011;26089;43.538;5.250;2022-09-01T01:01:53;5.90;;;3.60;;
16288;SDS011;26089;43.538;5.250;2022-09-01T01:04:20;4.73;;;4.33;;
16288;SDS011;26089;43.538;5.250;2022-09-01T01:06:49;4.27;;;3.87;;
16288;SDS011;26089;43.538;5.250;2022-09-01T01:09:23;4.83;;;3.80;;
16288;SDS011;26089;43.538;5.250;2022-09-01T01:11:52;4.53;;;3.40;;
16288;SDS011;26089;43.538;5.250;2022-09-01T01:14:25;3.50;;;3.20;;
16288;SDS011;26089;43.538;5.250;2022-09-01T01:16:55;3.93;;;3.63;;
16288;SDS011;26089;43.538;5.250;2022-09-01T01:19:24;4.33;;;3.60;;
16288;SDS011;26089;43.538;5.250;2022-09-01T01:22:18;4.43;;;3.93;;
16288;SDS011;26089;43.538;5.250;2022-09-01T01:25:09;4.07;;;3.37;;
16288;SDS011;26089;43.538;5.250;2022-09-01T01:27:36;4.13;;;3.73;;
16288;SDS011;26089;43.538;5.250;2022-09-01T01:30:07;4.60;;;4.20;;
16288;SDS011;26089;43.538;5.250;2022-09-01T01:32:35;4.30;;;3.90;;
16288;SDS011;26089;43.538;5.250;2022-09-01T01:35:07;4.23;;;3.90;;
16288;SDS011;26089;43.538;5.250;2022-09-01T01:37:39;3.70;;;3.40;;
16288;SDS011;26089;43.538;5.250;2022-09-01T01:40:15;5.27;;;4.00;;
16288;SDS011;26089;43.538;5.250;2022-09-01T01:42:44;5.13;;;4.20;;
16288;SDS011;26089;43.538;5.250;2022-09-01T01:45:13;7.57;;;4.27;;
16288;SDS011;26089;43.538;5.250;2022-09-01T01:47:42;3.87;;;3.50;;
16288;SDS011;26089;43.538;5.250;2022-09-01T01:50:17;4.17;;;3.77;;
16288;SDS011;26089;43.538;5.250;2022-09-01T01:52:44;4.30;;;4.00;;
16288;SDS011;26089;43.538;5.250;2022-09-01T01:55:13;3.73;;;3.43;;
16288;SDS011;26089;43.538;5.250;2022-09-01T01:57:43;4.50;;;3.60;;
16288;SDS011;26089;43.538;5.250;2022-09-01T02:00:14;5.13;;;4.00;;
16288;SDS011;26089;43.538;5.250;2022-09-01T02:02:44;3.90;;;3.57;;
16288;SDS011;26089;43.538;5.250;2022-09-01T02:05:16;4.10;;;3.80;;
16288;SDS011;26089;43.538;5.250;2022-09-01T02:07:49;4.87;;;3.43;;
16288;SDS011;26089;43.538;5.250;2022-09-01T02:10:22;4.87;;;4.17;;
16288;SDS011;26089;43.538;5.250;2022-09-01T02:12:50;4.10;;;3.80;;
16288;SDS011;26089;43.538;5.250;2022-09-01T02:15:17;5.90;;;4.20;;
16288;SDS011;26089;43.538;5.250;2022-09-01T02:17:45;4.30;;;3.67;;
16288;SDS011;26089;43.538;5.250;2022-09-01T02:20:13;4.10;;;3.80;;
16288;SDS011;26089;43.538;5.250;2022-09-01T02:22:41;5.50;;;4.17;;
16288;SDS011;26089;43.538;5.250;2022-09-01T02:25:10;4.77;;;3.73;;
16288;SDS011;26089;43.538;5.250;2022-09-01T02:27:42;4.30;;;3.87;;
16288;SDS011;26089;43.538;5.250;2022-09-01T02:30:11;4.53;;;4.10;;
16288;SDS011;26089;43.538;5.250;2022-09-01T02:32:38;4.80;;;3.93;;
16288;SDS011;26089;43.538;5.250;2022-09-01T02:35:06;6.13;;;4.23;;
16288;SDS011;26089;43.538;5.250;2022-09-01T02:37:34;7.50;;;3.90;;
16288;SDS011;26089;43.538;5.250;2022-09-01T02:40:04;4.53;;;4.00;;
16288;SDS011;26089;43.538;5.250;2022-09-01T02:42:34;4.13;;;3.83;;
16288;SDS011;26089;43.538;5.250;2022-09-01T02:45:06;4.60;;;4.20;;
16288;SDS011;26089;43.538;5.250;2022-09-01T02:47:39;4.67;;;4.27;;
16288;SDS011;26089;43.538;5.250;2022-09-01T02:50:09;4.03;;;3.60;;
16288;SDS011;26089;43.538;5.250;2022-09-01T02:52:41;4.27;;;3.83;;
16288;SDS011;26089;43.538;5.250;2022-09-01T02:55:09;3.80;;;3.50;;
16288;SDS011;26089;43.538;5.250;2022-09-01T02:57:36;4.20;;;3.80;;
16288;SDS011;26089;43.538;5.250;2022-09-01T03:00:07;3.97;;;3.57;;
16288;SDS011;26089;43.538;5.250;2022-09-01T03:02:46;4.93;;;4.00;;
16288;SDS011;26089;43.538;5.250;2022-09-01T03:05:16;4.20;;;3.80;;
16288;SDS011;26089;43.538;5.250;2022-09-01T03:07:49;4.13;;;3.60;;
16288;SDS011;26089;43.538;5.250;2022-09-01T03:10:21;5.70;;;3.70;;
16288;SDS011;26089;43.538;5.250;2022-09-01T03:12:52;3.87;;;3.57;;
16288;SDS011;26089;43.538;5.250;2022-09-01T03:15:21;4.00;;;3.70;;
16288;SDS011;26089;43.538;5.250;2022-09-01T03:17:48;4.00;;;3.70;;
16288;SDS011;26089;43.538;5.250;2022-09-01T03:20:16;4.47;;;4.07;;
16288;SDS011;26089;43.538;5.250;2022-09-01T03:22:46;4.40;;;4.00;;
16288;SDS011;26089;43.538;5.250;2022-09-01T03:25:14;4.43;;;4.03;;
16288;SDS011;26089;43.538;5.250;2022-09-01T03:27:42;4.80;;;4.00;;
16288;SDS011;26089;43.538;5.250;2022-09-01T03:30:10;4.83;;;4.30;;
16288;SDS011;26089;43.538;5.250;2022-09-01T03:32:39;3.90;;;3.60;;
16288;SDS011;26089;43.538;5.250;2022-09-01T03:35:07;5.37;;;3.70;;
16288;SDS011;26089;43.538;5.250;2022-09-01T03:37:34;5.17;;;4.13;;
16288;SDS011;26089;43.538;5.250;2022-09-01T03:40:02;4.53;;;4.07;;
16288;SDS011;26089;43.538;5.250;2022-09-01T03:42:30;4.43;;;4.03;;
16288;SDS011;26089;43.538;5.250;2022-09-01T03:44:58;4.40;;;4.10;;
16288;SDS011;26089;43.538;5.250;2022-09-01T03:47:33;4.63;;;4.23;;
16288;SDS011;26089;43.538;5.250;2022-09-01T03:50:07;4.90;;;3.97;;
16288;SDS011;26089;43.538;5.250;2022-09-01T03:52:37;4.20;;;3.80;;
16288;SDS011;26089;43.538;5.250;2022-09-01T03:55:05;5.47;;;3.90;;
16288;SDS011;26089;43.538;5.250;2022-09-01T03:57:34;4.50;;;3.53;;
16288;SDS011;26089;43.538;5.250;2022-09-01T04:00:06;4.37;;;4.03;;
16288;SDS011;26089;43.538;5.250;2022-09-01T04:02:44;5.17;;;3.77;;
16288;SDS011;26089;43.538;5.250;2022-09-01T04:05:16;4.27;;;3.80;;
16288;SDS011;26089;43.538;5.250;2022-09-01T04:07:44;4.63;;;4.23;;
16288;SDS011;26089;43.538;5.250;2022-09-01T04:10:13;4.50;;;4.10;;
16288;SDS011;26089;43.538;5.250;2022-09-01T04:12:40;4.70;;;4.23;;
16288;SDS011;26089;43.538;5.250;2022-09-01T04:15:07;6.53;;;4.23;;
16288;SDS011;26089;43.538;5.250;2022-09-01T04:17:35;4.63;;;4.33;;
16288;SDS011;26089;43.538;5.250;2022-09-01T04:20:21;4.40;;;4.00;;
16288;SDS011;26089;43.538;5.250;2022-09-01T04:22:48;4.30;;;3.90;;
16288;SDS011;26089;43.538;5.250;2022-09-01T04:25:17;4.47;;;4.17;;
16288;SDS011;26089;43.538;5.250;2022-09-01T04:27:47;3.90;;;3.50;;
16288;SDS011;26089;43.538;5.250;2022-09-01T04:30:15;4.90;;;3.57;;
16288;SDS011;26089;43.538;5.250;2022-09-01T04:32:42;4.50;;;3.93;;
16288;SDS011;26089;43.538;5.250;2022-09-01T04:35:11;4.90;;;3.70;;
16288;SDS011;26089;43.538;5.250;2022-09-01T04:37:42;4.33;;;3.73;;
16288;SDS011;26089;43.538;5.250;2022-09-01T04:40:11;4.50;;;4.10;;
16288;SDS011;26089;43.538;5.250;2022-09-01T04:42:39;4.97;;;4.50;;
16288;SDS011;26089;43.538;5.250;2022-09-01T04:45:07;4.90;;;4.50;;
16288;SDS011;26089;43.538;5.250;2022-09-01T04:47:37;6.50;;;4.80;;
16288;SDS011;26089;43.538;5.250;2022-09-01T04:50:06;4.83;;;4.43;;
16288;SDS011;26089;43.538;5.250;2022-09-01T04:52:38;4.53;;;3.73;;
16288;SDS011;26089;43.538;5.250;2022-09-01T04:55:08;4.93;;;4.53;;
16288;SDS011;26089;43.538;5.250;2022-09-01T04:57:41;4.67;;;4.13;;
16288;SDS011;26089;43.538;5.250;2022-09-01T05:00:11;5.67;;;4.73;;
16288;SDS011;26089;43.538;5.250;2022-09-01T05:02:46;5.77;;;4.27;;
16288;SDS011;26089;43.538;5.250;2022-09-01T05:05:16;5.80;;;4.50;;
16288;SDS011;26089;43.538;5.250;2022-09-01T05:07:43;5.03;;;4.53;;
16288;SDS011;26089;43.538;5.250;2022-09-01T05:10:12;4.70;;;4.30;;
16288;SDS011;26089;43.538;5.250;2022-09-01T05:12:39;5.33;;;4.93;;
16288;SDS011;26089;43.538;5.250;2022-09-01T05:15:09;5.83;;;4.47;;
16288;SDS011;26089;43.538;5.250;2022-09-01T05:17:36;6.00;;;4.63;;
16288;SDS011;26089;43.538;5.250;2022-09-01T05:20:04;5.03;;;4.60;;
16288;SDS011;26089;43.538;5.250;2022-09-01T05:22:33;4.57;;;4.10;;
16288;SDS011;26089;43.538;5.250;2022-09-01T05:25:02;4.83;;;4.43;;
16288;SDS011;26089;43.538;5.250;2022-09-01T05:27:38;4.87;;;3.97;;
16288;SDS011;26089;43.538;5.250;2022-09-01T05:30:11;4.70;;;4.30;;
16288;SDS011;26089;43.538;5.250;2022-09-01T05:32:41;5.90;;;5.20;;
16288;SDS011;26089;43.538;5.250;2022-09-01T05:35:12;6.57;;;4.80;;
16288;SDS011;26089;43.538;5.250;2022-09-01T05:37:40;4.83;;;4.40;;
16288;SDS011;26089;43.538;5.250;2022-09-01T05:40:08;5.47;;;4.97;;
16288;SDS011;26089;43.538;5.250;2022-09-01T05:42:41;4.83;;;4.27;;
16288;SDS011;26089;43.538;5.250;2022-09-01T05:45:09;4.63;;;4.20;;
16288;SDS011;26089;43.538;5.250;2022-09-01T05:47:38;5.13;;;4.63;;
16288;SDS011;26089;43.538;5.250;2022-09-01T05:50:06;4.63;;;4.23;;
16288;SDS011;26089;43.538;5.250;2022-09-01T05:52:35;4.53;;;4.23;;
16288;SDS011;26089;43.538;5.250;2022-09-01T05:55:04;4.83;;;4.20;;
16288;SDS011;26089;43.538;5.250;2022-09-01T05:57:33;5.10;;;4.00;;
16288;SDS011;26089;43.538;5.250;2022-09-01T06:00:02;4.20;;;3.80;;
16288;SDS011;26089;43.538;5.250;2022-09-01T06:02:34;4.53;;;4.13;;
16288;SDS011;26089;43.538;5.250;2022-09-01T06:05:03;5.97;;;4.20;;
16288;SDS011;26089;43.538;5.250;2022-09-01T06:07:31;5.50;;;4.10;;
16288;SDS011;26089;43.538;5.250;2022-09-01T06:10:00;5.93;;;4.10;;
16288;SDS011;26089;43.538;5.250;2022-09-01T06:12:27;4.93;;;4.10;;
16288;SDS011;26089;43.538;5.250;2022-09-01T06:14:55;4.43;;;4.03;;
16288;SDS011;26089;43.538;5.250;2022-09-01T06:17:24;3.97;;;3.60;;
16288;SDS011;26089;43.538;5.250;2022-09-01T06:19:54;6.67;;;4.03;;
16288;SDS011;26089;43.538;5.250;2022-09-01T06:22:22;4.00;;;3.57;;
16288;SDS011;26089;43.538;5.250;2022-09-01T06:24:50;5.13;;;3.90;;
16288;SDS011;26089;43.538;5.250;2022-09-01T06:27:18;5.23;;;4.20;;
16288;SDS011;26089;43.538;5.250;2022-09-01T06:29:46;4.00;;;3.53;;
16288;SDS011;26089;43.538;5.250;2022-09-01T06:32:15;3.73;;;3.43;;
16288;SDS011;26089;43.538;5.250;2022-09-01T06:34:44;4.90;;;4.30;;
16288;SDS011;26089;43.538;5.250;2022-09-01T06:37:13;4.43;;;4.00;;
16288;SDS011;26089;43.538;5.250;2022-09-01T06:39:42;4.87;;;4.03;;
16288;SDS011;26089;43.538;5.250;2022-09-01T06:42:09;3.97;;;3.60;;
16288;SDS011;26089;43.538;5.250;2022-09-01T06:44:37;5.27;;;3.67;;
16288;SDS011;26089;43.538;5.250;2022-09-01T06:47:05;4.27;;;3.87;;
16288;SDS011;26089;43.538;5.250;2022-09-01T06:49:33;4.40;;;3.90;;
16288;SDS011;26089;43.538;5.250;2022-09-01T06:52:05;4.00;;;3.60;;
16288;SDS011;26089;43.538;5.250;2022-09-01T06:54:32;9.07;;;3.90;;
16288;SDS011;26089;43.538;5.250;2022-09-01T06:57:00;8.20;;;4.40;;
16288;SDS011;26089;43.538;5.250;2022-09-01T06:59:28;4.40;;;4.00;;
16288;SDS011;26089;43.538;5.250;2022-09-01T07:01:56;5.90;;;3.73;;
16288;SDS011;26089;43.538;5.250;2022-09-01T07:04:25;5.60;;;3.80;;
16288;SDS011;26089;43.538;5.250;2022-09-01T07:06:54;6.17;;;4.60;;
16288;SDS011;26089;43.538;5.250;2022-09-01T07:09:23;4.87;;;4.00;;
16288;SDS011;26089;43.538;5.250;2022-09-01T07:11:51;4.57;;;4.03;;
16288;SDS011;26089;43.538;5.250;2022-09-01T07:14:19;5.68;;;4.10;;
16288;SDS011;26089;43.538;5.250;2022-09-01T07:16:47;5.03;;;3.85;;
16288;SDS011;26089;43.538;5.250;2022-09-01T07:19:15;5.25;;;3.72;;
16288;SDS011;26089;43.538;5.250;2022-09-01T07:21:42;5.90;;;3.57;;
16288;SDS011;26089;43.538;5.250;2022-09-01T07:24:10;6.32;;;3.72;;
16288;SDS011;26089;43.538;5.250;2022-09-01T07:26:40;5.93;;;3.88;;
16288;SDS011;26089;43.538;5.250;2022-09-01T07:29:07;6.50;;;4.13;;
16288;SDS011;26089;43.538;5.250;2022-09-01T07:31:35;5.53;;;3.60;;
16288;SDS011;26089;43.538;5.250;2022-09-01T07:34:05;4.13;;;3.47;;
16288;SDS011;26089;43.538;5.250;2022-09-01T07:36:36;5.60;;;3.78;;
16288;SDS011;26089;43.538;5.250;2022-09-01T07:39:04;4.10;;;3.50;;
16288;SDS011;26089;43.538;5.250;2022-09-01T07:41:32;4.18;;;3.78;;
16288;SDS011;26089;43.538;5.250;2022-09-01T07:44:01;4.10;;;3.70;;
16288;SDS011;26089;43.538;5.250;2022-09-01T07:46:32;4.35;;;3.85;;
16288;SDS011;26089;43.538;5.250;2022-09-01T07:48:59;3.80;;;3.40;;
16288;SDS011;26089;43.538;5.250;2022-09-01T07:51:27;5.85;;;3.60;;
16288;SDS011;26089;43.538;5.250;2022-09-01T07:53:56;4.25;;;3.47;;
16288;SDS011;26089;43.538;5.250;2022-09-01T07:56:26;3.42;;;3.13;;
16288;SDS011;26089;43.538;5.250;2022-09-01T07:58:55;4.57;;;3.40;;
16288;SDS011;26089;43.538;5.250;2022-09-01T08:01:24;6.07;;;3.60;;
16288;SDS011;26089;43.538;5.250;2022-09-01T08:03:53;4.15;;;3.72;;
16288;SDS011;26089;43.538;5.250;2022-09-01T08:06:22;4.03;;;3.45;;
16288;SDS011;26089;43.538;5.250;2022-09-01T08:08:51;4.05;;;3.60;;
16288;SDS011;26089;43.538;5.250;2022-09-01T08:11:20;5.90;;;3.50;;
16288;SDS011;26089;43.538;5.250;2022-09-01T08:13:49;3.97;;;3.38;;
16288;SDS011;26089;43.538;5.250;2022-09-01T08:16:17;3.60;;;2.90;;
16288;SDS011;26089;43.538;5.250;2022-09-01T08:18:47;7.60;;;3.65;;
16288;SDS011;26089;43.538;5.250;2022-09-01T08:21:14;3.35;;;3.15;;
16288;SDS011;26089;43.538;5.250;2022-09-01T08:23:42;6.53;;;3.55;;
16288;SDS011;26089;43.538;5.250;2022-09-01T08:26:10;3.28;;;3.00;;
16288;SDS011;26089;43.538;5.250;2022-09-01T08:28:39;5.35;;;3.20;;
16288;SDS011;26089;43.538;5.250;2022-09-01T08:31:06;4.15;;;3.72;;
16288;SDS011;26089;43.538;5.250;2022-09-01T08:33:34;3.80;;;3.38;;
16288;SDS011;26089;43.538;5.250;2022-09-01T08:36:03;3.60;;;3.28;;
16288;SDS011;26089;43.538;5.250;2022-09-01T08:38:33;3.75;;;3.10;;
16288;SDS011;26089;43.538;5.250;2022-09-01T08:41:00;3.20;;;3.00;;
16288;SDS011;26089;43.538;5.250;2022-09-01T08:43:32;2.80;;;2.60;;
16288;SDS011;26089;43.538;5.250;2022-09-01T08:46:08;5.78;;;3.47;;
16288;SDS011;26089;43.538;5.250;2022-09-01T08:48:39;3.25;;;2.67;;
16288;SDS011;26089;43.538;5.250;2022-09-01T08:51:11;3.10;;;2.88;;
16288;SDS011;26089;43.538;5.250;2022-09-01T08:53:45;5.20;;;3.05;;
16288;SDS011;26089;43.538;5.250;2022-09-01T08:56:17;3.13;;;2.88;;
16288;SDS011;26089;43.538;5.250;2022-09-01T08:58:44;3.25;;;2.90;;
16288;SDS011;26089;43.538;5.250;2022-09-01T09:01:14;2.70;;;2.50;;
16288;SDS011;26089;43.538;5.250;2022-09-01T09:03:56;5.85;;;2.85;;
16288;SDS011;26089;43.538;5.250;2022-09-01T09:06:36;3.78;;;2.72;;
16288;SDS011;26089;43.538;5.250;2022-09-01T09:09:11;3.67;;;2.83;;
16288;SDS011;26089;43.538;5.250;2022-09-01T09:14:53;3.00;;;2.80;;
16288;SDS011;26089;43.538;5.250;2022-09-01T09:17:31;3.05;;;2.80;;
16288;SDS011;26089;43.538;5.250;2022-09-01T09:20:02;2.60;;;2.40;;
16288;SDS011;26089;43.538;5.250;2022-09-01T09:22:31;2.75;;;2.55;;
16288;SDS011;26089;43.538;5.250;2022-09-01T09:25:01;3.78;;;2.70;;
16288;SDS011;26089;43.538;5.250;2022-09-01T09:27:32;4.43;;;2.67;;
16288;SDS011;26089;43.538;5.250;2022-09-01T09:30:01;3.38;;;2.83;;
16288;SDS011;26089;43.538;5.250;2022-09-01T09:32:41;2.45;;;2.35;;
16288;SDS011;26089;43.538;5.250;2022-09-01T09:35:25;2.85;;;2.65;;
16288;SDS011;26089;43.538;5.250;2022-09-01T09:38:13;2.58;;;2.38;;
16288;SDS011;26089;43.538;5.250;2022-09-01T09:40:54;2.97;;;2.65;;
16288;SDS011;26089;43.538;5.250;2022-09-01T09:43:24;3.33;;;2.35;;
16288;SDS011;26089;43.538;5.250;2022-09-01T09:46:18;2.97;;;2.78;;
16288;SDS011;26089;43.538;5.250;2022-09-01T09:48:48;2.97;;;2.78;;
16288;SDS011;26089;43.538;5.250;2022-09-01T09:51:31;3.63;;;2.63;;
16288;SDS011;26089;43.538;5.250;2022-09-01T09:54:10;4.35;;;3.00;;
16288;SDS011;26089;43.538;5.250;2022-09-01T09:56:44;3.70;;;2.60;;
16288;SDS011;26089;43.538;5.250;2022-09-01T09:59:18;3.08;;;2.67;;
16288;SDS011;26089;43.538;5.250;2022-09-01T10:01:49;2.95;;;2.75;;
16288;SDS011;26089;43.538;5.250;2022-09-01T10:07:01;2.58;;;2.42;;
16288;SDS011;26089;43.538;5.250;2022-09-01T10:09:50;3.08;;;2.78;;
16288;SDS011;26089;43.538;5.250;2022-09-01T10:12:19;4.90;;;2.50;;
16288;SDS011;26089;43.538;5.250;2022-09-01T10:14:49;3.15;;;2.85;;
16288;SDS011;26089;43.538;5.250;2022-09-01T10:17:20;2.72;;;2.50;;
16288;SDS011;26089;43.538;5.250;2022-09-01T10:19:52;3.03;;;2.55;;
16288;SDS011;26089;43.538;5.250;2022-09-01T10:22:22;2.83;;;2.63;;
16288;SDS011;26089;43.538;5.250;2022-09-01T10:24:51;2.53;;;2.33;;
16288;SDS011;26089;43.538;5.250;2022-09-01T10:27:19;2.50;;;2.30;;
16288;SDS011;26089;43.538;5.250;2022-09-01T10:29:50;2.55;;;2.33;;
16288;SDS011;26089;43.538;5.250;2022-09-01T10:32:24;2.58;;;2.40;;
16288;SDS011;26089;43.538;5.250;2022-09-01T10:34:54;3.38;;;2.80;;
16288;SDS011;26089;43.538;5.250;2022-09-01T10:37:22;2.45;;;2.33;;
16288;SDS011;26089;43.538;5.250;2022-09-01T10:42:54;3.30;;;3.00;;
16288;SDS011;26089;43.538;5.250;2022-09-01T10:45:30;2.90;;;2.70;;
16288;SDS011;26089;43.538;5.250;2022-09-01T10:54:07;3.72;;;2.65;;
16288;SDS011;26089;43.538;5.250;2022-09-01T10:56:57;2.70;;;2.50;;
16288;SDS011;26089;43.538;5.250;2022-09-01T10:59:26;5.57;;;3.05;;
16288;SDS011;26089;43.538;5.250;2022-09-01T11:02:08;3.58;;;2.80;;
16288;SDS011;26089;43.538;5.250;2022-09-01T11:07:36;3.05;;;2.42;;
16288;SDS011;26089;43.538;5.250;2022-09-01T11:13:13;2.50;;;2.30;;
16288;SDS011;26089;43.538;5.250;2022-09-01T11:16:03;4.32;;;2.17;;
16288;SDS011;26089;43.538;5.250;2022-09-01T11:22:08;3.13;;;2.13;;
16288;SDS011;26089;43.538;5.250;2022-09-01T11:24:51;2.28;;;2.15;;
16288;SDS011;26089;43.538;5.250;2022-09-01T11:27:56;2.55;;;2.35;;
16288;SDS011;26089;43.538;5.250;2022-09-01T11:30:32;2.28;;;2.15;;
16288;SDS011;26089;43.538;5.250;2022-09-01T11:33:10;2.30;;;2.10;;
16288;SDS011;26089;43.538;5.250;2022-09-01T11:35:45;4.82;;;2.30;;
16288;SDS011;26089;43.538;5.250;2022-09-01T11:38:13;3.08;;;2.30;;
16288;SDS011;26089;43.538;5.250;2022-09-01T11:40:41;2.58;;;2.05;;
16288;SDS011;26089;43.538;5.250;2022-09-01T11:43:09;2.33;;;2.13;;
16288;SDS011;26089;43.538;5.250;2022-09-01T11:45:43;2.65;;;2.20;;
16288;SDS011;26089;43.538;5.250;2022-09-01T11:48:20;2.45;;;2.25;;
16288;SDS011;26089;43.538;5.250;2022-09-01T11:50:54;2.90;;;2.20;;
16288;SDS011;26089;43.538;5.250;2022-09-01T11:53:24;2.33;;;1.95;;
16288;SDS011;26089;43.538;5.250;2022-09-01T11:55:53;2.50;;;2.38;;
16288;SDS011;26089;43.538;5.250;2022-09-01T11:58:29;4.10;;;2.10;;
16288;SDS011;26089;43.538;5.250;2022-09-01T12:01:11;2.53;;;2.33;;
16288;SDS011;26089;43.538;5.250;2022-09-01T12:03:40;2.70;;;2.25;;
16288;SDS011;26089;43.538;5.250;2022-09-01T12:06:08;3.28;;;2.33;;
16288;SDS011;26089;43.538;5.250;2022-09-01T12:08:38;4.22;;;2.30;;
16288;SDS011;26089;43.538;5.250;2022-09-01T12:11:07;4.53;;;2.53;;
16288;SDS011;26089;43.538;5.250;2022-09-01T12:13:37;5.00;;;2.65;;
16288;SDS011;26089;43.538;5.250;2022-09-01T12:16:06;2.78;;;2.28;;
16288;SDS011;26089;43.538;5.250;2022-09-01T12:18:43;4.68;;;2.55;;
16288;SDS011;26089;43.538;5.250;2022-09-01T12:21:16;2.17;;;2.08;;
16288;SDS011;26089;43.538;5.250;2022-09-01T12:23:47;2.60;;;2.35;;
16288;SDS011;26089;43.538;5.250;2022-09-01T12:26:15;2.60;;;2.40;;
16288;SDS011;26089;43.538;5.250;2022-09-01T12:28:48;2.22;;;2.10;;
16288;SDS011;26089;43.538;5.250;2022-09-01T12:31:16;2.75;;;2.53;;
16288;SDS011;26089;43.538;5.250;2022-09-01T12:33:46;3.72;;;2.40;;
16288;SDS011;26089;43.538;5.250;2022-09-01T12:36:14;4.55;;;2.50;;
16288;SDS011;26089;43.538;5.250;2022-09-01T12:38:48;2.45;;;2.35;;
16288;SDS011;26089;43.538;5.250;2022-09-01T12:41:30;2.38;;;2.28;;
16288;SDS011;26089;43.538;5.250;2022-09-01T12:46:54;4.57;;;2.53;;
16288;SDS011;26089;43.538;5.250;2022-09-01T12:49:24;3.42;;;2.45;;
16288;SDS011;26089;43.538;5.250;2022-09-01T12:52:09;2.50;;;2.15;;
16288;SDS011;26089;43.538;5.250;2022-09-01T12:54:43;3.25;;;2.20;;
16288;SDS011;26089;43.538;5.250;2022-09-01T12:57:11;3.72;;;2.20;;
16288;SDS011;26089;43.538;5.250;2022-09-01T13:00:04;2.45;;;2.03;;
16288;SDS011;26089;43.538;5.250;2022-09-01T13:02:40;2.25;;;1.90;;
16288;SDS011;26089;43.538;5.250;2022-09-01T13:05:20;2.85;;;2.45;;
16288;SDS011;26089;43.538;5.250;2022-09-01T13:07:51;3.17;;;1.90;;
16288;SDS011;26089;43.538;5.250;2022-09-01T13:10:20;2.60;;;2.40;;
16288;SDS011;26089;43.538;5.250;2022-09-01T13:12:47;3.70;;;2.00;;
16288;SDS011;26089;43.538;5.250;2022-09-01T13:15:14;2.10;;;2.00;;
16288;SDS011;26089;43.538;5.250;2022-09-01T13:17:42;2.33;;;2.10;;
16288;SDS011;26089;43.538;5.250;2022-09-01T13:20:09;2.00;;;1.90;;
16288;SDS011;26089;43.538;5.250;2022-09-01T13:22:38;2.78;;;2.20;;
16288;SDS011;26089;43.538;5.250;2022-09-01T13:25:08;2.22;;;2.03;;
16288;SDS011;26089;43.538;5.250;2022-09-01T13:27:37;1.88;;;1.70;;
16288;SDS011;26089;43.538;5.250;2022-09-01T13:30:08;4.95;;;1.98;;
16288;SDS011;26089;43.538;5.250;2022-09-01T13:32:36;2.10;;;1.80;;
16288;SDS011;26089;43.538;5.250;2022-09-01T13:35:04;1.90;;;1.80;;
16288;SDS011;26089;43.538;5.250;2022-09-01T13:37:31;2.80;;;1.75;;
16288;SDS011;26089;43.538;5.250;2022-09-01T13:40:01;3.25;;;2.10;;
16288;SDS011;26089;43.538;5.250;2022-09-01T13:42:29;1.73;;;1.63;;
16288;SDS011;26089;43.538;5.250;2022-09-01T13:44:56;3.30;;;1.75;;
16288;SDS011;26089;43.538;5.250;2022-09-01T13:47:23;2.90;;;1.80;;
16288;SDS011;26089;43.538;5.250;2022-09-01T13:49:50;1.90;;;1.80;;
16288;SDS011;26089;43.538;5.250;2022-09-01T13:52:17;1.63;;;1.63;;
16288;SDS011;26089;43.538;5.250;2022-09-01T13:54:45;3.63;;;1.73;;
16288;SDS011;26089;43.538;5.250;2022-09-01T13:57:14;3.20;;;2.00;;
16288;SDS011;26089;43.538;5.250;2022-09-01T13:59:41;2.25;;;1.85;;
16288;SDS011;26089;43.538;5.250;2022-09-01T14:02:09;2.45;;;1.88;;
16288;SDS011;26089;43.538;5.250;2022-09-01T14:04:36;2.58;;;1.98;;
16288;SDS011;26089;43.538;5.250;2022-09-01T14:07:03;2.63;;;1.80;;
16288;SDS011;26089;43.538;5.250;2022-09-01T14:09:30;4.40;;;1.85;;
16288;SDS011;26089;43.538;5.250;2022-09-01T14:11:57;2.33;;;2.22;;
16288;SDS011;26089;43.538;5.250;2022-09-01T14:14:25;2.17;;;2.03;;
16288;SDS011;26089;43.538;5.250;2022-09-01T14:16:52;5.18;;;2.00;;
16288;SDS011;26089;43.538;5.250;2022-09-01T14:19:20;3.33;;;2.10;;
16288;SDS011;26089;43.538;5.250;2022-09-01T14:21:48;2.10;;;1.70;;
16288;SDS011;26089;43.538;5.250;2022-09-01T14:24:15;2.08;;;1.88;;
16288;SDS011;26089;43.538;5.250;2022-09-01T14:26:44;2.28;;;2.08;;
16288;SDS011;26089;43.538;5.250;2022-09-01T14:29:11;2.58;;;1.55;;
16288;SDS011;26089;43.538;5.250;2022-09-01T14:31:39;2.15;;;1.50;;
16288;SDS011;26089;43.538;5.250;2022-09-01T14:34:08;1.83;;;1.73;;
16288;SDS011;26089;43.538;5.250;2022-09-01T14:36:36;2.03;;;1.83;;
16288;SDS011;26089;43.538;5.250;2022-09-01T14:39:04;1.77;;;1.67;;
16288;SDS011;26089;43.538;5.250;2022-09-01T14:41:31;3.22;;;2.13;;
16288;SDS011;26089;43.538;5.250;2022-09-01T14:43:58;1.52;;;1.42;;
16288;SDS011;26089;43.538;5.250;2022-09-01T14:46:27;1.92;;;1.83;;
16288;SDS011;26089;43.538;5.250;2022-09-01T14:49:01;2.35;;;1.58;;
16288;SDS011;26089;43.538;5.250;2022-09-01T14:51:29;2.45;;;1.80;;
16288;SDS011;26089;43.538;5.250;2022-09-01T14:53:57;2.45;;;2.00;;
16288;SDS011;26089;43.538;5.250;2022-09-01T14:56:24;2.65;;;1.83;;
16288;SDS011;26089;43.538;5.250;2022-09-01T14:58:51;1.80;;;1.65;;
16288;SDS011;26089;43.538;5.250;2022-09-01T15:01:23;6.05;;;1.73;;
16288;SDS011;26089;43.538;5.250;2022-09-01T15:03:50;2.42;;;1.88;;
16288;SDS011;26089;43.538;5.250;2022-09-01T15:06:20;2.00;;;1.75;;
16288;SDS011;26089;43.538;5.250;2022-09-01T15:08:48;1.77;;;1.60;;
16288;SDS011;26089;43.538;5.250;2022-09-01T15:11:16;2.70;;;1.70;;
16288;SDS011;26089;43.538;5.250;2022-09-01T15:13:45;2.15;;;1.80;;
16288;SDS011;26089;43.538;5.250;2022-09-01T15:16:17;1.70;;;1.60;;
16288;SDS011;26089;43.538;5.250;2022-09-01T15:18:45;1.85;;;1.63;;
16288;SDS011;26089;43.538;5.250;2022-09-01T15:21:24;3.65;;;1.90;;
16288;SDS011;26089;43.538;5.250;2022-09-01T15:23:54;2.10;;;1.90;;
16288;SDS011;26089;43.538;5.250;2022-09-01T15:26:22;1.77;;;1.67;;
16288;SDS011;26089;43.538;5.250;2022-09-01T15:28:49;3.55;;;1.63;;
16288;SDS011;26089;43.538;5.250;2022-09-01T15:31:16;2.88;;;1.80;;
16288;SDS011;26089;43.538;5.250;2022-09-01T15:33:44;1.80;;;1.70;;
16288;SDS011;26089;43.538;5.250;2022-09-01T15:36:14;1.85;;;1.75;;